createdAt,value
2023-04-16T00:00:56.169Z,99017.94
2023-04-16T00:03:24.596Z,99024.09
2023-04-16T00:05:55.991Z,99020.22
2023-04-16T00:08:25.556Z,99018.38
2023-04-16T00:10:55.015Z,99010.25
2023-04-16T00:13:23.413Z,99016.78
2023-04-16T00:15:51.612Z,99011.69
2023-04-16T00:18:21.358Z,99010.13
2023-04-16T00:20:49.652Z,99009.31
2023-04-16T00:23:18.215Z,99017.81
2023-04-16T00:25:46.399Z,99017.81
2023-04-16T00:28:14.466Z,99024.75
2023-04-16T00:30:42.684Z,99029.81
2023-04-16T00:33:10.904Z,99027.53
2023-04-16T00:35:40.541Z,99028.66
2023-04-16T00:38:08.570Z,99034.88
2023-04-16T00:40:36.779Z,99038.75
2023-04-16T00:43:04.985Z,99039.09
2023-04-16T00:45:33.424Z,99040.25
2023-04-16T00:48:02.465Z,99042.19
2023-04-16T00:50:31.271Z,99047.66
2023-04-16T00:53:00.903Z,99035.25
2023-04-16T00:55:29.265Z,99038.75
2023-04-16T00:58:16.024Z,99032.47
2023-04-16T01:00:44.151Z,99033.28
2023-04-16T01:03:12.739Z,99027.09
2023-04-16T01:05:41.530Z,99027.84
2023-04-16T01:08:18.045Z,99026.25
2023-04-16T01:10:47.110Z,99020.84
2023-04-16T01:13:15.364Z,99022.72
2023-04-16T01:15:43.594Z,99030.56
2023-04-16T01:18:16.249Z,99027.84
2023-04-16T01:20:46.111Z,99033.78
2023-04-16T01:23:14.312Z,99035.06
2023-04-16T01:25:42.410Z,99039.78
2023-04-16T01:28:10.861Z,99020.81
2023-04-16T01:30:39.023Z,99029.69
2023-04-16T01:33:08.314Z,99028.91
2023-04-16T01:35:36.467Z,99030.50
2023-04-16T01:38:07.978Z,99033.50
2023-04-16T01:40:36.619Z,99026.50
2023-04-16T01:43:05.021Z,99029.63
2023-04-16T01:45:33.813Z,99033.41
2023-04-16T01:48:02.465Z,99032.44
2023-04-16T01:50:31.622Z,99028.91
2023-04-16T01:52:59.788Z,99029.25
2023-04-16T01:55:29.179Z,99022.72
2023-04-16T01:57:57.300Z,99026.25
2023-04-16T02:00:25.415Z,99013.13
2023-04-16T02:02:53.831Z,99014.63
2023-04-16T02:05:22.025Z,99011.09
2023-04-16T02:07:50.134Z,99019.50
2023-04-16T02:10:18.243Z,99013.25
2023-04-16T02:12:47.725Z,99015.97
2023-04-16T02:15:16.510Z,99017.31
2023-04-16T02:17:46.697Z,99018.81
2023-04-16T02:20:15.155Z,99018.78
2023-04-16T02:22:43.946Z,99017.56
2023-04-16T02:25:12.216Z,99013.50
2023-04-16T02:27:40.294Z,99022.97
2023-04-16T02:30:11.317Z,99017.22
2023-04-16T02:32:39.379Z,99016.28
2023-04-16T02:35:08.254Z,99027.38
2023-04-16T02:37:36.438Z,99021.13
2023-04-16T02:40:04.732Z,99031.91
2023-04-16T02:42:32.875Z,99028.34
2023-04-16T02:45:00.966Z,99026.88
2023-04-16T02:47:30.500Z,99024.03
2023-04-16T02:49:58.609Z,99025.06
2023-04-16T02:52:26.696Z,99023.19
2023-04-16T02:54:54.794Z,99028.81
2023-04-16T02:57:22.845Z,99027.84
2023-04-16T02:59:51.064Z,99021.09
2023-04-16T03:02:19.395Z,99030.66
2023-04-16T03:04:48.984Z,99039.84
2023-04-16T03:07:18.432Z,99038.31
2023-04-16T03:09:46.526Z,99029.84
2023-04-16T03:12:14.597Z,99034.81
2023-04-16T03:14:42.764Z,99032.44
2023-04-16T03:17:10.922Z,99027.19
2023-04-16T03:19:39.031Z,99027.19
2023-04-16T03:22:08.600Z,99037.88
2023-04-16T03:24:37.747Z,99039.75
2023-04-16T03:27:06.014Z,99039.03
2023-04-16T03:29:34.106Z,99037.56
2023-04-16T03:32:03.660Z,99044.16
2023-04-16T03:34:31.777Z,99042.44
2023-04-16T03:37:00.051Z,99050.50
2023-04-16T03:39:29.480Z,99056.28
2023-04-16T03:41:57.587Z,99056.78
2023-04-16T03:44:25.745Z,99052.56
2023-04-16T03:46:54.003Z,99050.34
2023-04-16T03:49:22.362Z,99050.84
2023-04-16T03:51:50.491Z,99059.38
2023-04-16T03:54:20.099Z,99065.53
2023-04-16T03:56:52.173Z,99072.00
2023-04-16T03:59:20.329Z,99067.38
2023-04-16T04:01:48.456Z,99062.22
2023-04-16T04:04:16.846Z,99065.97
2023-04-16T04:06:46.744Z,99063.63
2023-04-16T04:09:16.522Z,99064.97
2023-04-16T04:11:44.805Z,99068.53
2023-04-16T04:14:14.362Z,99070.16
2023-04-16T04:16:42.982Z,99075.69
2023-04-16T04:19:11.504Z,99072.16
2023-04-16T04:21:40.206Z,99068.34
2023-04-16T04:24:08.287Z,99076.84
2023-04-16T04:26:36.406Z,99071.38
2023-04-16T04:29:04.490Z,99074.59
2023-04-16T04:31:34.137Z,99082.75
2023-04-16T04:34:02.381Z,99085.88
2023-04-16T04:36:31.065Z,99075.88
2023-04-16T04:39:01.090Z,99060.94
2023-04-16T04:41:29.197Z,99066.19
2023-04-16T04:43:57.274Z,99065.09
2023-04-16T04:46:25.506Z,99065.69
2023-04-16T04:48:55.159Z,99068.28
2023-04-16T04:51:23.330Z,99070.81
2023-04-16T04:53:51.443Z,99074.56
2023-04-16T04:56:19.548Z,99062.91
2023-04-16T04:58:47.825Z,99065.34
2023-04-16T05:01:16.132Z,99065.72
2023-04-16T05:03:44.397Z,99081.63
2023-04-16T05:06:13.990Z,99079.28
2023-04-16T05:08:42.135Z,99083.25
2023-04-16T05:11:10.302Z,99084.00
2023-04-16T05:13:38.540Z,99081.78
2023-04-16T05:16:07.590Z,99085.34
2023-04-16T05:18:35.748Z,99086.59
2023-04-16T05:21:03.962Z,99088.28
2023-04-16T05:23:33.475Z,99098.31
2023-04-16T05:26:01.776Z,99092.75
2023-04-16T05:28:29.967Z,99091.81
2023-04-16T05:30:58.127Z,99091.38
2023-04-16T05:33:26.325Z,99087.06
2023-04-16T05:35:54.807Z,99100.00
2023-04-16T05:38:23.071Z,99092.25
2023-04-16T05:40:52.778Z,99100.56
2023-04-16T05:43:20.968Z,99101.09
2023-04-16T05:45:49.230Z,99103.28
2023-04-16T05:48:17.488Z,99102.63
2023-04-16T05:50:48.388Z,99090.78
2023-04-16T05:53:18.973Z,99092.53
2023-04-16T05:55:47.888Z,99096.88
2023-04-16T05:58:17.904Z,99096.16
2023-04-16T06:00:47.417Z,99100.47
2023-04-16T06:03:15.820Z,99101.25
2023-04-16T06:05:44.174Z,99104.78
2023-04-16T06:08:14.786Z,99100.50
2023-04-16T06:10:43.253Z,99101.25
2023-04-16T06:13:11.530Z,99090.66
2023-04-16T06:15:41.829Z,99091.41
2023-04-16T06:18:11.744Z,99077.44
2023-04-16T06:20:40.265Z,99075.13
2023-04-16T06:23:08.848Z,99076.66
2023-04-16T06:25:37.043Z,99078.59
2023-04-16T06:28:05.275Z,99066.50
2023-04-16T06:30:33.726Z,99073.13
2023-04-16T06:33:03.406Z,99075.53
2023-04-16T06:35:31.482Z,99076.72
2023-04-16T06:37:59.723Z,99065.06
2023-04-16T06:40:27.942Z,99063.16
2023-04-16T06:42:56.039Z,99070.59
2023-04-16T06:45:24.128Z,99075.56
2023-04-16T06:47:52.617Z,99079.88
2023-04-16T06:50:23.722Z,99076.00
2023-04-16T06:52:53.458Z,99076.78
2023-04-16T06:55:21.794Z,99083.41
2023-04-16T06:57:49.894Z,99081.50
2023-04-16T07:00:18.377Z,99081.50
2023-04-16T07:02:46.668Z,99079.19
2023-04-16T07:05:14.787Z,99079.97
2023-04-16T07:07:47.232Z,99072.94
2023-04-16T07:10:15.477Z,99074.50
2023-04-16T07:12:43.596Z,99079.94
2023-04-16T07:15:12.613Z,99079.91
2023-04-16T07:17:40.781Z,99068.25
2023-04-16T07:20:10.361Z,99065.94
2023-04-16T07:22:38.564Z,99076.47
2023-04-16T07:25:09.220Z,99066.38
2023-04-16T07:27:37.354Z,99067.91
2023-04-16T07:30:06.426Z,99059.31
2023-04-16T07:32:34.683Z,99064.38
2023-04-16T07:35:03.916Z,99061.25
2023-04-16T07:37:32.112Z,99057.75
2023-04-16T07:40:00.960Z,99056.91
2023-04-16T07:42:30.473Z,99049.47
2023-04-16T07:44:58.795Z,99058.88
2023-04-16T07:47:27.320Z,99062.00
2023-04-16T07:49:55.942Z,99056.56
2023-04-16T07:52:23.947Z,99053.03
2023-04-16T07:54:52.897Z,99052.97
2023-04-16T07:57:21.956Z,99042.72
2023-04-16T07:59:51.541Z,99040.75
2023-04-16T08:02:19.844Z,99045.81
2023-04-16T08:04:48.182Z,99046.19
2023-04-16T08:07:16.483Z,99041.59
2023-04-16T08:09:53.112Z,99043.19
2023-04-16T08:12:22.380Z,99045.09
2023-04-16T08:14:51.942Z,99052.47
2023-04-16T08:17:20.262Z,99060.66
2023-04-16T08:19:48.332Z,99061.03
2023-04-16T08:22:16.707Z,99063.81
2023-04-16T08:24:45.853Z,99061.09
2023-04-16T08:27:19.244Z,99064.16
2023-04-16T08:29:48.708Z,99059.38
2023-04-16T08:32:18.607Z,99053.34
2023-04-16T08:34:46.930Z,99056.25
2023-04-16T08:37:15.027Z,99054.88
2023-04-16T08:39:43.071Z,99056.59
2023-04-16T08:42:21.381Z,99054.66
2023-04-16T08:44:50.442Z,99047.38
2023-04-16T08:47:22.609Z,99042.22
2023-04-16T08:49:51.282Z,99045.06
2023-04-16T08:52:21.575Z,99030.19
2023-04-16T08:55:01.440Z,99035.03
2023-04-16T08:57:45.312Z,99037.41
2023-04-16T09:00:14.768Z,99031.09
2023-04-16T09:02:44.644Z,99021.59
2023-04-16T09:05:17.475Z,99021.25
2023-04-16T09:07:47.352Z,99004.78
2023-04-16T09:10:16.444Z,99009.06
2023-04-16T09:12:45.313Z,99008.47
2023-04-16T09:15:16.889Z,99002.59
2023-04-16T09:17:46.543Z,99005.47
2023-04-16T09:20:15.066Z,98992.03
2023-04-16T09:22:44.717Z,98998.78
2023-04-16T09:25:13.340Z,98987.47
2023-04-16T09:27:41.648Z,98990.81
2023-04-16T09:30:23.670Z,98989.19
2023-04-16T09:32:54.708Z,98983.06
2023-04-16T09:35:23.143Z,98981.66
2023-04-16T09:37:58.114Z,98977.78
2023-04-16T09:40:27.720Z,98987.19
2023-04-16T09:43:00.922Z,98984.44
2023-04-16T09:45:34.118Z,98978.97
2023-04-16T09:48:07.491Z,98982.41
2023-04-16T09:50:35.665Z,98976.00
2023-04-16T09:53:05.354Z,98967.34
2023-04-16T09:55:34.162Z,98974.31
2023-04-16T09:58:03.629Z,98965.59
2023-04-16T10:00:32.431Z,98978.06
2023-04-16T10:03:08.477Z,98970.22
2023-04-16T10:05:36.721Z,98975.25
2023-04-16T10:08:12.268Z,98980.94
2023-04-16T10:10:40.956Z,98974.94
2023-04-16T10:13:09.954Z,98969.78
2023-04-16T10:15:38.453Z,98973.47
2023-04-16T10:18:08.445Z,98973.88
2023-04-16T10:20:38.086Z,98977.63
2023-04-16T10:23:06.661Z,98969.59
2023-04-16T10:25:35.489Z,98976.38
2023-04-16T10:28:04.292Z,98968.31
2023-04-16T10:30:32.906Z,98971.53
2023-04-16T10:33:01.795Z,98958.63
2023-04-16T10:35:31.706Z,98958.63
2023-04-16T10:38:19.804Z,98942.63
2023-04-16T10:40:49.360Z,98944.16
2023-04-16T10:43:19.607Z,98945.63
2023-04-16T10:45:49.780Z,98945.59
2023-04-16T10:48:20.156Z,98950.97
2023-04-16T10:50:58.583Z,98955.38
2023-04-16T10:53:27.891Z,98948.75
2023-04-16T10:56:15.517Z,98945.38
2023-04-16T10:58:43.896Z,98944.31
2023-04-16T11:01:16.855Z,98938.94
2023-04-16T11:03:48.339Z,98948.47
2023-04-16T11:06:19.269Z,98944.56
2023-04-16T11:08:54.371Z,98945.31
2023-04-16T11:11:23.531Z,98937.59
2023-04-16T11:13:56.012Z,98940.41
2023-04-16T11:16:26.471Z,98943.47
2023-04-16T11:19:08.009Z,98931.81
2023-04-16T11:21:38.422Z,98933.06
2023-04-16T11:24:06.775Z,98922.31
2023-04-16T11:26:35.209Z,98920.63
2023-04-16T11:29:05.128Z,98918.91
2023-04-16T11:31:33.241Z,98912.13
2023-04-16T11:34:01.412Z,98908.47
2023-04-16T11:36:29.461Z,98900.44
2023-04-16T11:39:04.817Z,98900.81
2023-04-16T11:41:32.945Z,98891.88
2023-04-16T11:44:01.529Z,98885.59
2023-04-16T11:46:40.498Z,98878.09
2023-04-16T11:49:09.250Z,98883.22
2023-04-16T11:51:41.361Z,98874.31
2023-04-16T11:54:12.180Z,98873.00
2023-04-16T11:56:46.920Z,98871.38
2023-04-16T11:59:17.541Z,98868.97
2023-04-16T12:01:48.835Z,98865.63
2023-04-16T12:04:18.264Z,98867.69
2023-04-16T12:07:08.564Z,98860.38
2023-04-16T12:09:40.817Z,98863.41
2023-04-16T12:12:27.599Z,98864.16
2023-04-16T12:14:57.731Z,98867.44
2023-04-16T12:17:28.305Z,98858.34
2023-04-16T12:19:58.624Z,98869.53
2023-04-16T12:22:31.702Z,98865.00
2023-04-16T12:25:02.951Z,98870.91
2023-04-16T12:27:48.579Z,98864.38
2023-04-16T12:30:19.778Z,98864.06
2023-04-16T12:32:49.498Z,98848.78
2023-04-16T12:35:31.475Z,98831.91
2023-04-16T12:37:59.609Z,98831.84
2023-04-16T12:40:29.264Z,98821.78
2023-04-16T12:42:57.538Z,98824.75
2023-04-16T12:45:26.388Z,98821.53
2023-04-16T12:47:54.595Z,98820.63
2023-04-16T12:50:22.831Z,98813.84
2023-04-16T12:52:51.106Z,98820.69
2023-04-16T12:55:19.510Z,98822.50
2023-04-16T12:57:53.011Z,98819.88
2023-04-16T13:00:22.714Z,98820.13
2023-04-16T13:02:52.828Z,98817.94
2023-04-16T13:05:24.108Z,98812.44
2023-04-16T13:07:52.286Z,98804.88
2023-04-16T13:10:23.653Z,98803.84
2023-04-16T13:12:53.572Z,98802.25
2023-04-16T13:15:22.074Z,98804.75
2023-04-16T13:17:50.735Z,98803.75
2023-04-16T13:20:23.874Z,98808.63
2023-04-16T13:22:52.553Z,98801.22
2023-04-16T13:25:20.645Z,98798.91
2023-04-16T13:27:48.682Z,98797.63
2023-04-16T13:30:18.451Z,98796.34
2023-04-16T13:32:47.888Z,98797.19
2023-04-16T13:35:19.085Z,98793.56
2023-04-16T13:37:47.512Z,98791.59
2023-04-16T13:40:15.837Z,98790.03
2023-04-16T13:42:43.942Z,98780.72
2023-04-16T13:45:12.334Z,98788.19
2023-04-16T13:47:42.952Z,98784.41
2023-04-16T13:50:12.143Z,98794.81
2023-04-16T13:52:40.214Z,98798.13
2023-04-16T13:55:10.377Z,98789.94
2023-04-16T13:57:39.736Z,98792.44
2023-04-16T14:00:11.862Z,98792.28
2023-04-16T14:02:46.147Z,98781.16
2023-04-16T14:05:14.513Z,98783.75
2023-04-16T14:07:42.786Z,98780.13
2023-04-16T14:10:12.282Z,98776.63
2023-04-16T14:12:40.672Z,98772.44
2023-04-16T14:15:14.939Z,98776.84
2023-04-16T14:17:45.182Z,98761.47
2023-04-16T14:20:15.954Z,98761.69
2023-04-16T14:22:45.076Z,98754.94
2023-04-16T14:25:13.585Z,98745.75
2023-04-16T14:27:42.639Z,98752.28
2023-04-16T14:30:11.476Z,98747.38
2023-04-16T14:32:40.117Z,98749.38
2023-04-16T14:35:12.046Z,98755.19
2023-04-16T14:37:40.825Z,98744.13
2023-04-16T14:40:12.489Z,98740.94
2023-04-16T14:42:41.524Z,98743.69
2023-04-16T14:45:17.626Z,98741.97
2023-04-16T14:47:47.999Z,98737.50
2023-04-16T14:50:19.529Z,98740.41
2023-04-16T14:52:47.810Z,98743.16
2023-04-16T14:55:18.381Z,98756.50
2023-04-16T14:57:46.534Z,98758.88
2023-04-16T15:00:19.007Z,98763.69
2023-04-16T15:02:48.567Z,98764.97
2023-04-16T15:05:18.751Z,98754.91
2023-04-16T15:07:47.353Z,98768.16
2023-04-16T15:10:15.610Z,98758.38
2023-04-16T15:12:43.745Z,98758.78
2023-04-16T15:15:12.627Z,98762.31
2023-04-16T15:17:41.575Z,98760.13
2023-04-16T15:20:11.118Z,98757.47
2023-04-16T15:22:41.187Z,98769.75
2023-04-16T15:25:10.155Z,98768.69
2023-04-16T15:27:39.680Z,98769.75
2023-04-16T15:30:09.191Z,98766.09
2023-04-16T15:32:37.417Z,98769.41
2023-04-16T15:35:06.341Z,98770.94
2023-04-16T15:37:34.792Z,98771.16
2023-04-16T15:40:07.981Z,98763.72
2023-04-16T15:42:36.307Z,98757.25
2023-04-16T15:45:04.471Z,98757.03
2023-04-16T15:47:32.651Z,98751.59
2023-04-16T15:50:01.028Z,98752.94
2023-04-16T15:52:29.815Z,98750.06
2023-04-16T15:54:57.996Z,98741.47
2023-04-16T15:57:28.953Z,98746.47
2023-04-16T16:00:06.476Z,98743.94
2023-04-16T16:02:36.377Z,98737.03
2023-04-16T16:05:04.910Z,98740.34
2023-04-16T16:07:33.132Z,98734.38
2023-04-16T16:10:01.573Z,98733.16
2023-04-16T16:12:31.716Z,98732.69
2023-04-16T16:15:00.476Z,98745.28
2023-04-16T16:17:29.362Z,98735.13
2023-04-16T16:19:57.909Z,98730.72
2023-04-16T16:22:26.167Z,98742.81
2023-04-16T16:24:57.787Z,98744.91
2023-04-16T16:27:25.969Z,98733.44
2023-04-16T16:29:55.918Z,98745.47
2023-04-16T16:32:24.285Z,98741.34
2023-04-16T16:34:52.371Z,98755.81
2023-04-16T16:37:20.440Z,98736.69
2023-04-16T16:39:48.557Z,98740.91
2023-04-16T16:42:19.364Z,98739.72
2023-04-16T16:44:49.000Z,98743.06
2023-04-16T16:47:18.612Z,98746.63
2023-04-16T16:49:48.066Z,98739.72
2023-04-16T16:52:18.529Z,98733.13
2023-04-16T16:54:46.871Z,98737.59
2023-04-16T16:57:15.547Z,98723.34
2023-04-16T16:59:44.003Z,98735.66
2023-04-16T17:02:12.398Z,98736.97
2023-04-16T17:04:42.033Z,98731.16
2023-04-16T17:07:10.300Z,98734.81
2023-04-16T17:09:38.915Z,98736.84
2023-04-16T17:12:07.806Z,98736.91
2023-04-16T17:14:36.277Z,98739.78
2023-04-16T17:17:04.476Z,98743.78
2023-04-16T17:19:32.568Z,98743.88
2023-04-16T17:22:02.061Z,98758.06
2023-04-16T17:24:30.277Z,98756.53
2023-04-16T17:26:58.570Z,98758.94
2023-04-16T17:29:26.950Z,98762.16
2023-04-16T17:31:55.132Z,98764.59
2023-04-16T17:34:23.316Z,98766.22
2023-04-16T17:36:51.702Z,98769.81
2023-04-16T17:39:22.472Z,98767.94
2023-04-16T17:41:54.394Z,98775.03
2023-04-16T17:44:23.249Z,98778.19
2023-04-16T17:46:51.463Z,98777.09
2023-04-16T17:49:19.667Z,98778.28
2023-04-16T17:51:47.760Z,98791.63
2023-04-16T17:54:15.946Z,98783.81
2023-04-16T17:56:46.181Z,98779.56
2023-04-16T17:59:14.406Z,98780.78
2023-04-16T18:01:42.676Z,98783.94
2023-04-16T18:04:11.530Z,98783.19
2023-04-16T18:06:40.462Z,98775.75
2023-04-16T18:09:08.708Z,98780.88
2023-04-16T18:11:37.216Z,98789.50
2023-04-16T18:14:10.136Z,98786.84
2023-04-16T18:16:38.646Z,98784.91
2023-04-16T18:19:07.083Z,98781.41
2023-04-16T18:21:35.887Z,98776.03
2023-04-16T18:24:04.070Z,98785.81
2023-04-16T18:26:35.695Z,98783.91
2023-04-16T18:29:04.228Z,98793.19
2023-04-16T18:31:34.455Z,98795.56
2023-04-16T18:34:02.909Z,98795.22
2023-04-16T18:36:31.339Z,98797.25
2023-04-16T18:39:02.437Z,98791.44
2023-04-16T18:41:31.298Z,98807.06
2023-04-16T18:43:59.477Z,98805.16
2023-04-16T18:46:28.006Z,98806.75
2023-04-16T18:48:59.046Z,98808.69
2023-04-16T18:51:27.417Z,98807.19
2023-04-16T18:53:55.557Z,98807.94
2023-04-16T18:56:23.737Z,98817.69
2023-04-16T18:58:51.949Z,98817.28
2023-04-16T19:01:20.425Z,98814.19
2023-04-16T19:03:48.905Z,98820.06
2023-04-16T19:06:18.538Z,98823.19
2023-04-16T19:08:46.653Z,98826.31
2023-04-16T19:11:14.774Z,98823.59
2023-04-16T19:13:43.360Z,98823.25
2023-04-16T19:16:12.482Z,98823.66
2023-04-16T19:18:40.674Z,98820.16
2023-04-16T19:21:10.968Z,98828.34
2023-04-16T19:23:40.631Z,98824.06
2023-04-16T19:26:08.736Z,98827.56
2023-04-16T19:28:38.803Z,98828.72
2023-04-16T19:31:07.437Z,98831.84
2023-04-16T19:33:35.672Z,98835.34
2023-04-16T19:36:03.758Z,98833.78
2023-04-16T19:38:32.663Z,98839.19
2023-04-16T19:41:02.888Z,98838.00
2023-04-16T19:43:32.045Z,98839.94
2023-04-16T19:46:00.275Z,98839.91
2023-04-16T19:48:28.976Z,98832.09
2023-04-16T19:50:57.104Z,98830.56
2023-04-16T19:53:25.500Z,98833.22
2023-04-16T19:55:53.601Z,98842.56
2023-04-16T19:58:23.309Z,98836.72
2023-04-16T20:00:51.609Z,98834.72
2023-04-16T20:03:19.919Z,98841.66
2023-04-16T20:05:50.015Z,98837.41
2023-04-16T20:08:18.324Z,98840.88
2023-04-16T20:10:46.589Z,98833.44
2023-04-16T20:13:16.089Z,98829.88
2023-04-16T20:15:47.969Z,98836.56
2023-04-16T20:18:16.030Z,98834.59
2023-04-16T20:20:44.209Z,98828.28
2023-04-16T20:23:12.423Z,98837.59
2023-04-16T20:25:42.642Z,98838.28
2023-04-16T20:28:10.818Z,98843.66
2023-04-16T20:30:39.996Z,98839.34
2023-04-16T20:33:10.537Z,98841.59
2023-04-16T20:35:38.610Z,98844.31
2023-04-16T20:38:06.836Z,98844.31
2023-04-16T20:40:38.183Z,98846.22
2023-04-16T20:43:10.180Z,98854.25
2023-04-16T20:45:41.139Z,98847.69
2023-04-16T20:48:11.982Z,98867.88
2023-04-16T20:50:40.142Z,98858.06
2023-04-16T20:53:08.252Z,98862.31
2023-04-16T20:55:36.432Z,98864.25
2023-04-16T20:58:04.508Z,98863.81
2023-04-16T21:00:49.116Z,98853.69
2023-04-16T21:03:34.282Z,98856.31
2023-04-16T21:06:03.707Z,98859.00
2023-04-16T21:08:31.729Z,98864.34
2023-04-16T21:10:59.950Z,98862.31
2023-04-16T21:13:28.009Z,98852.53
2023-04-16T21:15:56.193Z,98853.22
2023-04-16T21:18:24.373Z,98860.53
2023-04-16T21:20:54.861Z,98859.03
2023-04-16T21:23:23.030Z,98863.72
2023-04-16T21:25:51.212Z,98859.34
2023-04-16T21:28:19.377Z,98858.88
2023-04-16T21:30:47.516Z,98860.38
2023-04-16T21:33:16.799Z,98860.72
2023-04-16T21:35:44.872Z,98867.31
2023-04-16T21:38:14.371Z,98864.53
2023-04-16T21:40:42.474Z,98870.22
2023-04-16T21:43:10.550Z,98863.91
2023-04-16T21:45:38.815Z,98858.81
2023-04-16T21:48:07.588Z,98857.22
2023-04-16T21:50:36.191Z,98853.97
2023-04-16T21:53:06.360Z,98860.94
2023-04-16T21:55:36.229Z,98863.28
2023-04-16T21:58:04.992Z,98868.38
2023-04-16T22:00:33.289Z,98868.28
2023-04-16T22:03:04.386Z,98860.13
2023-04-16T22:05:33.623Z,98862.38
2023-04-16T22:08:10.817Z,98858.91
2023-04-16T22:10:50.951Z,98861.63
2023-04-16T22:13:19.083Z,98851.38
2023-04-16T22:15:48.052Z,98862.47
2023-04-16T22:18:18.356Z,98858.09
2023-04-16T22:20:47.382Z,98863.09
2023-04-16T22:23:16.184Z,98866.16
2023-04-16T22:25:44.532Z,98863.94
2023-04-16T22:28:14.237Z,98863.88
2023-04-16T22:30:42.393Z,98868.91
2023-04-16T22:33:11.372Z,98865.91
2023-04-16T22:35:40.381Z,98867.03
2023-04-16T22:38:08.966Z,98863.81
2023-04-16T22:40:37.277Z,98859.53
2023-04-16T22:43:05.330Z,98852.63
2023-04-16T22:45:34.785Z,98850.03
2023-04-16T22:48:02.931Z,98856.09
2023-04-16T22:50:32.374Z,98854.97
2023-04-16T22:53:00.443Z,98851.00
2023-04-16T22:55:28.593Z,98859.19
2023-04-16T22:57:56.652Z,98855.69
2023-04-16T23:00:25.078Z,98858.81
2023-04-16T23:02:54.679Z,98858.00
2023-04-16T23:05:23.033Z,98853.69
2023-04-16T23:07:51.207Z,98858.72
2023-04-16T23:10:19.388Z,98849.41
2023-04-16T23:12:47.511Z,98851.69
2023-04-16T23:15:17.600Z,98851.25
2023-04-16T23:17:46.214Z,98842.31
2023-04-16T23:20:15.722Z,98837.25
2023-04-16T23:22:43.843Z,98839.91
2023-04-16T23:25:12.276Z,98842.22
2023-04-16T23:27:40.376Z,98847.66
2023-04-16T23:30:09.607Z,98838.88
2023-04-16T23:32:37.913Z,98842.34
2023-04-16T23:35:06.772Z,98847.97
2023-04-16T23:37:36.385Z,98847.59
2023-04-16T23:40:04.993Z,98838.81
2023-04-16T23:42:33.229Z,98841.53
2023-04-16T23:45:03.664Z,98842.97
2023-04-16T23:47:32.068Z,98844.84
2023-04-16T23:50:00.555Z,98848.28
2023-04-16T23:52:28.679Z,98843.97
2023-04-16T23:54:58.260Z,98843.16
2023-04-16T23:57:26.326Z,98840.44
2023-04-16T23:59:55.339Z,98836.59
